createdAt,value
2022-10-05T00:05:55.275Z,22.16
2022-10-05T00:13:53.437Z,22.1
2022-10-05T00:21:39.997Z,22.15
2022-10-05T00:29:23.900Z,22.1
2022-10-05T00:37:04.922Z,22
2022-10-05T00:45:09.187Z,22.05
2022-10-05T00:53:15.628Z,21.87
2022-10-05T01:01:28.011Z,21.77
2022-10-05T01:09:29.929Z,21.79
2022-10-05T01:17:46.882Z,21.81
2022-10-05T01:25:57.106Z,21.78
2022-10-05T01:34:11.409Z,21.79
2022-10-05T01:42:39.737Z,21.92
2022-10-05T01:50:40.129Z,21.9
2022-10-05T01:58:55.636Z,21.77
2022-10-05T02:07:13.171Z,21.79
2022-10-05T02:15:23.736Z,21.84
2022-10-05T02:23:39.825Z,21.78
2022-10-05T02:31:53.230Z,21.75
2022-10-05T02:40:18.188Z,21.69
2022-10-05T02:48:21.206Z,21.68
2022-10-05T02:56:50.359Z,21.69
2022-10-05T03:05:32.264Z,21.69
2022-10-05T03:13:57.240Z,21.69
2022-10-05T03:22:20.791Z,21.66
2022-10-05T03:30:43.816Z,21.69
2022-10-05T03:39:10.087Z,21.68
2022-10-05T03:47:30.150Z,21.67
2022-10-05T03:55:54.599Z,21.69
2022-10-05T04:04:23.815Z,21.7
2022-10-05T04:12:39.810Z,21.7
2022-10-05T04:20:59.825Z,21.68
2022-10-05T04:29:26.932Z,21.7
2022-10-05T04:37:46.307Z,21.72
2022-10-05T04:46:02.546Z,21.8
2022-10-05T04:54:21.292Z,21.63
2022-10-05T05:02:46.307Z,21.64
2022-10-05T05:11:15.100Z,21.64
2022-10-05T05:19:42.536Z,21.62
2022-10-05T05:28:09.811Z,21.64
2022-10-05T05:36:26.269Z,21.69
2022-10-05T05:44:38.858Z,21.67
2022-10-05T05:53:01.287Z,21.61
2022-10-05T06:01:32.537Z,21.63
2022-10-05T06:09:50.823Z,21.71
2022-10-05T06:18:29.321Z,21.68
2022-10-05T06:26:35.827Z,21.64
2022-10-05T06:34:57.796Z,21.71
2022-10-05T06:43:16.828Z,21.66
2022-10-05T06:51:32.084Z,21.67
2022-10-05T07:00:02.593Z,21.72
2022-10-05T07:08:22.688Z,21.66
2022-10-05T07:16:54.257Z,21.72
2022-10-05T07:25:23.891Z,21.72
2022-10-05T07:33:41.229Z,21.69
2022-10-05T07:42:01.435Z,21.59
2022-10-05T07:50:21.489Z,21.57
2022-10-05T07:58:55.843Z,21.59
2022-10-05T08:07:15.003Z,21.61
2022-10-05T08:15:28.085Z,21.58
2022-10-05T08:23:47.881Z,21.57
2022-10-05T08:32:13.472Z,21.59
2022-10-05T08:40:34.545Z,21.62
2022-10-05T08:48:55.313Z,21.58
2022-10-05T08:57:04.666Z,21.66
2022-10-05T09:05:26.488Z,21.67
2022-10-05T09:13:41.363Z,21.7
2022-10-05T09:21:52.684Z,21.74
2022-10-05T09:30:14.744Z,21.74
2022-10-05T09:38:24.960Z,21.7
2022-10-05T09:46:49.619Z,21.65
2022-10-05T09:55:10.563Z,21.72
2022-10-05T10:03:29.338Z,21.6
2022-10-05T10:11:30.385Z,21.65
2022-10-05T10:20:00.523Z,21.64
2022-10-05T10:28:33.952Z,21.73
2022-10-05T10:36:39.438Z,21.68
2022-10-05T10:44:59.109Z,21.66
2022-10-05T10:53:10.691Z,21.75
2022-10-05T11:01:18.026Z,21.86
2022-10-05T11:09:18.693Z,21.8
2022-10-05T11:17:20.953Z,21.72
2022-10-05T11:25:49.918Z,21.67
2022-10-05T11:34:18.632Z,21.63
2022-10-05T11:42:38.064Z,21.66
2022-10-05T11:50:58.658Z,21.64
2022-10-05T11:59:31.343Z,21.67
2022-10-05T12:08:02.600Z,21.66
2022-10-05T12:16:23.414Z,21.79
2022-10-05T12:24:40.369Z,21.8
2022-10-05T12:32:58.110Z,21.74
2022-10-05T12:41:02.862Z,21.84
2022-10-05T12:49:23.621Z,21.94
2022-10-05T12:57:44.020Z,22.01
2022-10-05T13:05:43.143Z,21.97
2022-10-05T13:13:25.740Z,22.06
2022-10-05T13:21:32.507Z,22.18
2022-10-05T13:29:58.693Z,22.37
2022-10-05T13:38:20.603Z,22.46
2022-10-05T13:46:40.230Z,22.63
2022-10-05T13:54:57.878Z,22.68
2022-10-05T14:03:05.997Z,22.97
2022-10-05T14:11:33.521Z,22.96
2022-10-05T14:19:56.163Z,23.05
2022-10-05T14:27:58.814Z,23.17
2022-10-05T14:35:56.508Z,23.2
2022-10-05T14:44:09.010Z,23.18
2022-10-05T14:52:19.992Z,23.32
2022-10-05T15:00:28.541Z,23.44
2022-10-05T15:08:49.501Z,23.44
2022-10-05T15:17:03.342Z,23.46
2022-10-05T15:25:30.055Z,23.44
2022-10-05T15:33:26.672Z,23.32
2022-10-05T15:41:42.579Z,23.15
2022-10-05T15:49:51.675Z,23.03
2022-10-05T15:58:07.249Z,23.01
2022-10-05T16:06:08.098Z,22.88
2022-10-05T16:14:05.270Z,22.75
2022-10-05T16:22:01.509Z,22.76
2022-10-05T16:30:31.067Z,22.66
2022-10-05T16:38:52.097Z,22.66
2022-10-05T16:47:01.294Z,22.58
2022-10-05T16:55:18.842Z,22.59
2022-10-05T17:03:32.132Z,22.54
2022-10-05T17:11:48.685Z,22.47
2022-10-05T17:19:50.732Z,22.47
2022-10-05T17:28:01.997Z,22.46
2022-10-05T17:36:01.407Z,22.42
2022-10-05T17:44:16.349Z,22.39
2022-10-05T17:52:29.276Z,22.38
2022-10-05T18:00:42.786Z,22.4
2022-10-05T18:08:55.767Z,22.48
2022-10-05T18:16:54.600Z,22.64
2022-10-05T18:24:53.539Z,22.62
2022-10-05T18:33:10.555Z,22.59
2022-10-05T18:41:22.939Z,22.63
2022-10-05T18:49:38.816Z,22.59
2022-10-05T18:58:00.272Z,22.63
2022-10-05T19:06:34.127Z,22.37
2022-10-05T19:14:45.718Z,22.42
2022-10-05T19:22:51.281Z,22.28
2022-10-05T19:30:59.460Z,22.18
2022-10-05T19:39:18.767Z,22.18
2022-10-05T19:47:25.415Z,22.15
2022-10-05T19:55:52.215Z,22.25
2022-10-05T20:03:56.556Z,22.14
2022-10-05T20:11:59.503Z,22.15
2022-10-05T20:20:08.805Z,22.12
2022-10-05T20:28:15.224Z,22.13
2022-10-05T20:35:57.789Z,22.14
2022-10-05T20:43:40.788Z,22.15
2022-10-05T20:51:12.157Z,22.15
2022-10-05T20:58:50.653Z,22.11
2022-10-05T21:06:16.818Z,22.1
2022-10-05T21:13:46.719Z,22.13
2022-10-05T21:21:34.667Z,22.24
2022-10-05T21:29:14.822Z,22.22
2022-10-05T21:36:46.985Z,22.15
2022-10-05T21:44:20.654Z,22.18
2022-10-05T21:52:03.134Z,22.3
2022-10-05T21:59:53.789Z,22.36
2022-10-05T22:07:42.831Z,22.35
2022-10-05T22:15:33.962Z,22.32
2022-10-05T22:23:32.517Z,22.24
2022-10-05T22:31:27.205Z,22.24
2022-10-05T22:38:55.879Z,22.11
2022-10-05T22:46:37.072Z,22.14
2022-10-05T22:54:16.838Z,22.25
2022-10-05T23:01:55.094Z,22.24
2022-10-05T23:09:41.745Z,22.22
2022-10-05T23:17:40.273Z,22.21
2022-10-05T23:25:12.297Z,22.24
2022-10-05T23:33:04.273Z,22.28
2022-10-05T23:41:00.236Z,22.27
2022-10-05T23:48:40.294Z,22.31
2022-10-05T23:56:16.874Z,22.16
